sensor_id;sensor_type;location;lat;lon;timestamp;temperature;humidity
34644;DHT22;26931;43.498;-1.506;2023-04-08T00:01:22;14.80;78.80
34644;DHT22;26931;43.498;-1.506;2023-04-08T00:03:47;14.80;78.90
34644;DHT22;26931;43.498;-1.506;2023-04-08T00:06:13;14.80;79.00
34644;DHT22;26931;43.498;-1.506;2023-04-08T00:08:40;14.70;79.00
34644;DHT22;26931;43.498;-1.506;2023-04-08T00:11:06;14.70;79.30
34644;DHT22;26931;43.498;-1.506;2023-04-08T00:13:32;14.70;79.40
34644;DHT22;26931;43.498;-1.506;2023-04-08T00:15:58;14.80;79.40
34644;DHT22;26931;43.498;-1.506;2023-04-08T00:18:24;14.60;79.20
34644;DHT22;26931;43.498;-1.506;2023-04-08T00:20:49;14.60;80.00
34644;DHT22;26931;43.498;-1.506;2023-04-08T00:23:15;14.50;79.40
34644;DHT22;26931;43.498;-1.506;2023-04-08T00:25:41;14.50;79.50
34644;DHT22;26931;43.498;-1.506;2023-04-08T00:28:07;14.40;79.50
34644;DHT22;26931;43.498;-1.506;2023-04-08T00:30:33;14.60;79.80
34644;DHT22;26931;43.498;-1.506;2023-04-08T00:32:59;14.40;80.00
34644;DHT22;26931;43.498;-1.506;2023-04-08T00:35:26;14.40;80.20
34644;DHT22;26931;43.498;-1.506;2023-04-08T00:37:51;14.30;80.40
34644;DHT22;26931;43.498;-1.506;2023-04-08T00:40:17;14.20;80.50
34644;DHT22;26931;43.498;-1.506;2023-04-08T00:42:43;14.20;80.90
34644;DHT22;26931;43.498;-1.506;2023-04-08T00:45:09;14.30;81.10
34644;DHT22;26931;43.498;-1.506;2023-04-08T00:47:35;14.10;81.30
34644;DHT22;26931;43.498;-1.506;2023-04-08T00:50:02;14.10;81.40
34644;DHT22;26931;43.498;-1.506;2023-04-08T00:52:28;14.10;81.70
34644;DHT22;26931;43.498;-1.506;2023-04-08T00:54:54;14.10;81.80
34644;DHT22;26931;43.498;-1.506;2023-04-08T00:57:20;14.10;82.00
34644;DHT22;26931;43.498;-1.506;2023-04-08T00:59:46;14.00;82.10
34644;DHT22;26931;43.498;-1.506;2023-04-08T01:09:55;13.90;82.90
34644;DHT22;26931;43.498;-1.506;2023-04-08T01:12:23;13.90;83.10
34644;DHT22;26931;43.498;-1.506;2023-04-08T01:14:52;13.80;83.30
34644;DHT22;26931;43.498;-1.506;2023-04-08T01:17:20;13.90;83.60
34644;DHT22;26931;43.498;-1.506;2023-04-08T01:19:46;13.80;83.80
34644;DHT22;26931;43.498;-1.506;2023-04-08T01:25:00;13.60;84.50
34644;DHT22;26931;43.498;-1.506;2023-04-08T01:27:27;13.60;84.90
34644;DHT22;26931;43.498;-1.506;2023-04-08T01:29:55;13.60;85.10
34644;DHT22;26931;43.498;-1.506;2023-04-08T01:32:22;13.50;85.30
34644;DHT22;26931;43.498;-1.506;2023-04-08T01:34:48;13.60;85.40
34644;DHT22;26931;43.498;-1.506;2023-04-08T01:37:15;13.50;85.30
34644;DHT22;26931;43.498;-1.506;2023-04-08T01:39:41;13.60;85.20
34644;DHT22;26931;43.498;-1.506;2023-04-08T01:42:07;13.40;85.00
34644;DHT22;26931;43.498;-1.506;2023-04-08T01:44:33;13.70;85.20
34644;DHT22;26931;43.498;-1.506;2023-04-08T01:47:00;13.50;85.20
34644;DHT22;26931;43.498;-1.506;2023-04-08T01:49:27;13.50;85.40
34644;DHT22;26931;43.498;-1.506;2023-04-08T01:51:53;13.50;85.60
34644;DHT22;26931;43.498;-1.506;2023-04-08T01:54:20;13.60;85.90
34644;DHT22;26931;43.498;-1.506;2023-04-08T01:56:46;13.50;85.90
34644;DHT22;26931;43.498;-1.506;2023-04-08T01:59:12;13.50;86.00
34644;DHT22;26931;43.498;-1.506;2023-04-08T02:01:39;13.50;85.90
34644;DHT22;26931;43.498;-1.506;2023-04-08T02:04:06;13.40;86.00
34644;DHT22;26931;43.498;-1.506;2023-04-08T02:06:32;13.50;86.20
34644;DHT22;26931;43.498;-1.506;2023-04-08T02:08:58;13.40;86.20
34644;DHT22;26931;43.498;-1.506;2023-04-08T02:11:24;13.40;86.30
34644;DHT22;26931;43.498;-1.506;2023-04-08T02:13:50;13.40;86.30
34644;DHT22;26931;43.498;-1.506;2023-04-08T02:16:25;13.30;86.40
34644;DHT22;26931;43.498;-1.506;2023-04-08T02:19:07;13.30;86.40
34644;DHT22;26931;43.498;-1.506;2023-04-08T02:21:37;13.50;86.70
34644;DHT22;26931;43.498;-1.506;2023-04-08T02:24:08;13.30;86.60
34644;DHT22;26931;43.498;-1.506;2023-04-08T02:26:35;13.40;86.80
34644;DHT22;26931;43.498;-1.506;2023-04-08T02:29:01;13.30;86.80
34644;DHT22;26931;43.498;-1.506;2023-04-08T02:31:28;13.40;86.90
34644;DHT22;26931;43.498;-1.506;2023-04-08T02:33:54;13.20;86.80
34644;DHT22;26931;43.498;-1.506;2023-04-08T02:36:21;13.20;86.90
34644;DHT22;26931;43.498;-1.506;2023-04-08T02:38:47;13.20;86.90
34644;DHT22;26931;43.498;-1.506;2023-04-08T02:41:14;13.10;86.90
34644;DHT22;26931;43.498;-1.506;2023-04-08T02:43:41;13.10;87.00
34644;DHT22;26931;43.498;-1.506;2023-04-08T02:46:07;13.10;87.10
34644;DHT22;26931;43.498;-1.506;2023-04-08T02:48:33;13.10;87.50
34644;DHT22;26931;43.498;-1.506;2023-04-08T02:50:59;13.00;87.40
34644;DHT22;26931;43.498;-1.506;2023-04-08T02:53:25;13.10;87.50
34644;DHT22;26931;43.498;-1.506;2023-04-08T02:55:51;13.20;87.60
34644;DHT22;26931;43.498;-1.506;2023-04-08T02:58:17;13.30;87.60
34644;DHT22;26931;43.498;-1.506;2023-04-08T03:00:43;13.30;87.70
34644;DHT22;26931;43.498;-1.506;2023-04-08T03:03:09;13.10;87.60
34644;DHT22;26931;43.498;-1.506;2023-04-08T03:05:34;13.30;87.70
34644;DHT22;26931;43.498;-1.506;2023-04-08T03:08:00;13.30;87.70
34644;DHT22;26931;43.498;-1.506;2023-04-08T03:10:26;13.10;87.60
34644;DHT22;26931;43.498;-1.506;2023-04-08T03:12:52;13.10;87.70
34644;DHT22;26931;43.498;-1.506;2023-04-08T03:15:18;13.10;87.80
34644;DHT22;26931;43.498;-1.506;2023-04-08T03:17:43;13.00;87.90
34644;DHT22;26931;43.498;-1.506;2023-04-08T03:20:09;12.90;88.10
34644;DHT22;26931;43.498;-1.506;2023-04-08T03:22:35;12.90;88.40
34644;DHT22;26931;43.498;-1.506;2023-04-08T03:25:01;13.00;88.40
34644;DHT22;26931;43.498;-1.506;2023-04-08T03:27:27;12.80;88.50
34644;DHT22;26931;43.498;-1.506;2023-04-08T03:29:53;12.80;88.60
34644;DHT22;26931;43.498;-1.506;2023-04-08T03:32:19;12.70;88.60
34644;DHT22;26931;43.498;-1.506;2023-04-08T03:34:45;12.70;88.70
34644;DHT22;26931;43.498;-1.506;2023-04-08T03:37:11;12.70;88.80
34644;DHT22;26931;43.498;-1.506;2023-04-08T03:39:37;12.70;88.80
34644;DHT22;26931;43.498;-1.506;2023-04-08T03:42:03;12.70;89.00
34644;DHT22;26931;43.498;-1.506;2023-04-08T03:44:31;12.60;89.00
34644;DHT22;26931;43.498;-1.506;2023-04-08T03:46:57;12.60;89.10
34644;DHT22;26931;43.498;-1.506;2023-04-08T03:49:22;12.60;89.10
34644;DHT22;26931;43.498;-1.506;2023-04-08T03:51:48;12.70;89.20
34644;DHT22;26931;43.498;-1.506;2023-04-08T03:54:14;12.60;89.20
34644;DHT22;26931;43.498;-1.506;2023-04-08T03:56:40;12.60;89.20
34644;DHT22;26931;43.498;-1.506;2023-04-08T03:59:06;12.30;89.10
34644;DHT22;26931;43.498;-1.506;2023-04-08T04:01:32;12.50;89.20
34644;DHT22;26931;43.498;-1.506;2023-04-08T04:03:57;12.50;89.20
34644;DHT22;26931;43.498;-1.506;2023-04-08T04:06:23;12.50;89.20
34644;DHT22;26931;43.498;-1.506;2023-04-08T04:08:52;12.50;89.20
34644;DHT22;26931;43.498;-1.506;2023-04-08T04:11:18;12.50;89.30
34644;DHT22;26931;43.498;-1.506;2023-04-08T04:13:43;12.50;89.20
34644;DHT22;26931;43.498;-1.506;2023-04-08T04:16:09;12.30;89.10
34644;DHT22;26931;43.498;-1.506;2023-04-08T04:18:35;12.40;89.20
34644;DHT22;26931;43.498;-1.506;2023-04-08T04:21:03;12.40;89.20
34644;DHT22;26931;43.498;-1.506;2023-04-08T04:23:29;12.40;89.30
34644;DHT22;26931;43.498;-1.506;2023-04-08T04:25:55;12.40;89.30
34644;DHT22;26931;43.498;-1.506;2023-04-08T04:28:21;12.40;89.30
34644;DHT22;26931;43.498;-1.506;2023-04-08T04:30:46;12.50;89.60
34644;DHT22;26931;43.498;-1.506;2023-04-08T04:33:12;12.30;89.60
34644;DHT22;26931;43.498;-1.506;2023-04-08T04:35:38;12.20;89.70
34644;DHT22;26931;43.498;-1.506;2023-04-08T04:38:05;12.30;90.00
34644;DHT22;26931;43.498;-1.506;2023-04-08T04:40:35;12.20;89.90
34644;DHT22;26931;43.498;-1.506;2023-04-08T04:43:01;12.40;90.00
34644;DHT22;26931;43.498;-1.506;2023-04-08T04:45:27;12.20;89.80
34644;DHT22;26931;43.498;-1.506;2023-04-08T04:47:52;12.20;89.80
34644;DHT22;26931;43.498;-1.506;2023-04-08T04:50:18;12.20;89.90
34644;DHT22;26931;43.498;-1.506;2023-04-08T04:52:44;12.10;89.80
34644;DHT22;26931;43.498;-1.506;2023-04-08T04:55:10;12.10;89.90
34644;DHT22;26931;43.498;-1.506;2023-04-08T04:57:36;12.10;90.00
34644;DHT22;26931;43.498;-1.506;2023-04-08T05:00:02;12.10;89.70
34644;DHT22;26931;43.498;-1.506;2023-04-08T05:02:28;12.10;89.60
34644;DHT22;26931;43.498;-1.506;2023-04-08T05:04:54;12.10;89.40
34644;DHT22;26931;43.498;-1.506;2023-04-08T05:07:20;12.10;89.30
34644;DHT22;26931;43.498;-1.506;2023-04-08T05:09:46;12.10;89.30
34644;DHT22;26931;43.498;-1.506;2023-04-08T05:12:12;12.10;89.20
34644;DHT22;26931;43.498;-1.506;2023-04-08T05:14:38;12.20;89.10
34644;DHT22;26931;43.498;-1.506;2023-04-08T05:17:03;12.10;89.00
34644;DHT22;26931;43.498;-1.506;2023-04-08T05:19:30;12.10;88.90
34644;DHT22;26931;43.498;-1.506;2023-04-08T05:21:56;12.10;88.80
34644;DHT22;26931;43.498;-1.506;2023-04-08T05:24:22;12.10;88.70
34644;DHT22;26931;43.498;-1.506;2023-04-08T05:26:48;12.00;88.60
34644;DHT22;26931;43.498;-1.506;2023-04-08T05:29:17;12.10;88.60
34644;DHT22;26931;43.498;-1.506;2023-04-08T05:31:43;12.10;88.60
34644;DHT22;26931;43.498;-1.506;2023-04-08T05:34:09;11.90;88.50
34644;DHT22;26931;43.498;-1.506;2023-04-08T05:36:36;12.10;88.50
34644;DHT22;26931;43.498;-1.506;2023-04-08T05:39:01;11.90;88.40
34644;DHT22;26931;43.498;-1.506;2023-04-08T05:41:27;12.10;88.50
34644;DHT22;26931;43.498;-1.506;2023-04-08T05:43:53;12.10;88.50
34644;DHT22;26931;43.498;-1.506;2023-04-08T05:46:19;12.20;88.70
34644;DHT22;26931;43.498;-1.506;2023-04-08T05:48:45;12.00;88.60
34644;DHT22;26931;43.498;-1.506;2023-04-08T05:51:14;12.00;88.70
34644;DHT22;26931;43.498;-1.506;2023-04-08T05:53:40;12.00;88.80
34644;DHT22;26931;43.498;-1.506;2023-04-08T05:56:06;12.00;88.80
34644;DHT22;26931;43.498;-1.506;2023-04-08T05:58:32;12.00;88.90
34644;DHT22;26931;43.498;-1.506;2023-04-08T06:00:57;11.90;88.90
34644;DHT22;26931;43.498;-1.506;2023-04-08T06:03:23;11.90;88.90
34644;DHT22;26931;43.498;-1.506;2023-04-08T06:05:49;11.90;88.90
34644;DHT22;26931;43.498;-1.506;2023-04-08T06:08:15;12.00;88.90
34644;DHT22;26931;43.498;-1.506;2023-04-08T06:10:47;12.20;89.10
34644;DHT22;26931;43.498;-1.506;2023-04-08T06:13:13;12.00;89.00
34644;DHT22;26931;43.498;-1.506;2023-04-08T06:15:38;12.00;88.90
34644;DHT22;26931;43.498;-1.506;2023-04-08T06:18:04;12.00;88.90
34644;DHT22;26931;43.498;-1.506;2023-04-08T06:20:30;11.90;88.80
34644;DHT22;26931;43.498;-1.506;2023-04-08T06:22:56;11.90;88.80
34644;DHT22;26931;43.498;-1.506;2023-04-08T06:25:22;11.90;89.10
34644;DHT22;26931;43.498;-1.506;2023-04-08T06:27:48;11.90;89.00
34644;DHT22;26931;43.498;-1.506;2023-04-08T06:30:14;11.90;89.10
34644;DHT22;26931;43.498;-1.506;2023-04-08T06:32:40;12.00;89.00
34644;DHT22;26931;43.498;-1.506;2023-04-08T06:35:06;11.90;88.90
34644;DHT22;26931;43.498;-1.506;2023-04-08T06:37:32;12.00;89.00
34644;DHT22;26931;43.498;-1.506;2023-04-08T06:40:03;12.00;88.90
34644;DHT22;26931;43.498;-1.506;2023-04-08T06:42:29;12.00;89.00
34644;DHT22;26931;43.498;-1.506;2023-04-08T06:44:55;12.00;88.90
34644;DHT22;26931;43.498;-1.506;2023-04-08T06:47:21;12.10;89.00
34644;DHT22;26931;43.498;-1.506;2023-04-08T06:49:46;11.90;88.80
34644;DHT22;26931;43.498;-1.506;2023-04-08T06:52:12;12.00;88.90
34644;DHT22;26931;43.498;-1.506;2023-04-08T06:54:38;12.10;88.90
34644;DHT22;26931;43.498;-1.506;2023-04-08T06:57:04;12.10;88.80
34644;DHT22;26931;43.498;-1.506;2023-04-08T06:59:30;12.10;88.80
34644;DHT22;26931;43.498;-1.506;2023-04-08T07:01:56;12.00;88.80
34644;DHT22;26931;43.498;-1.506;2023-04-08T07:04:21;12.20;88.80
34644;DHT22;26931;43.498;-1.506;2023-04-08T07:06:47;12.20;89.50
34644;DHT22;26931;43.498;-1.506;2023-04-08T07:09:13;12.00;88.90
34644;DHT22;26931;43.498;-1.506;2023-04-08T07:11:39;12.10;88.90
34644;DHT22;26931;43.498;-1.506;2023-04-08T07:14:05;12.00;88.80
34644;DHT22;26931;43.498;-1.506;2023-04-08T07:16:30;12.30;89.10
34644;DHT22;26931;43.498;-1.506;2023-04-08T07:18:56;12.30;89.00
34644;DHT22;26931;43.498;-1.506;2023-04-08T07:21:22;12.50;89.00
34644;DHT22;26931;43.498;-1.506;2023-04-08T07:23:48;12.40;89.00
34644;DHT22;26931;43.498;-1.506;2023-04-08T07:26:14;12.30;89.70
34644;DHT22;26931;43.498;-1.506;2023-04-08T07:28:39;12.60;89.00
34644;DHT22;26931;43.498;-1.506;2023-04-08T07:31:12;12.40;88.90
34644;DHT22;26931;43.498;-1.506;2023-04-08T07:33:39;12.40;88.90
34644;DHT22;26931;43.498;-1.506;2023-04-08T07:36:04;12.40;88.80
34644;DHT22;26931;43.498;-1.506;2023-04-08T07:38:31;12.50;88.90
34644;DHT22;26931;43.498;-1.506;2023-04-08T07:40:56;12.70;88.80
34644;DHT22;26931;43.498;-1.506;2023-04-08T07:43:22;12.60;88.60
34644;DHT22;26931;43.498;-1.506;2023-04-08T07:45:48;12.60;88.40
34644;DHT22;26931;43.498;-1.506;2023-04-08T07:48:14;12.60;88.30
34644;DHT22;26931;43.498;-1.506;2023-04-08T07:50:40;12.70;88.20
34644;DHT22;26931;43.498;-1.506;2023-04-08T07:54:34;12.70;87.60
34644;DHT22;26931;43.498;-1.506;2023-04-08T07:57:03;12.80;87.80
34644;DHT22;26931;43.498;-1.506;2023-04-08T07:59:30;12.80;88.00
34644;DHT22;26931;43.498;-1.506;2023-04-08T08:01:56;12.90;87.90
34644;DHT22;26931;43.498;-1.506;2023-04-08T08:06:44;12.90;86.80
34644;DHT22;26931;43.498;-1.506;2023-04-08T08:10:13;13.00;86.70
34644;DHT22;26931;43.498;-1.506;2023-04-08T08:12:39;13.20;87.10
34644;DHT22;26931;43.498;-1.506;2023-04-08T08:15:06;13.20;86.80
34644;DHT22;26931;43.498;-1.506;2023-04-08T08:17:32;13.30;86.70
34644;DHT22;26931;43.498;-1.506;2023-04-08T08:19:59;13.40;86.40
34644;DHT22;26931;43.498;-1.506;2023-04-08T08:29:57;13.60;84.10
34644;DHT22;26931;43.498;-1.506;2023-04-08T08:32:23;13.70;84.90
34644;DHT22;26931;43.498;-1.506;2023-04-08T08:34:49;13.80;85.20
34644;DHT22;26931;43.498;-1.506;2023-04-08T08:37:15;14.00;85.30
34644;DHT22;26931;43.498;-1.506;2023-04-08T08:39:41;14.10;85.10
34644;DHT22;26931;43.498;-1.506;2023-04-08T08:42:18;14.20;84.80
34644;DHT22;26931;43.498;-1.506;2023-04-08T08:44:47;14.40;84.50
34644;DHT22;26931;43.498;-1.506;2023-04-08T08:47:14;14.60;84.30
34644;DHT22;26931;43.498;-1.506;2023-04-08T08:49:40;14.60;84.30
34644;DHT22;26931;43.498;-1.506;2023-04-08T08:52:07;15.00;84.10
34644;DHT22;26931;43.498;-1.506;2023-04-08T08:54:33;15.20;83.60
34644;DHT22;26931;43.498;-1.506;2023-04-08T08:56:59;15.30;83.30
34644;DHT22;26931;43.498;-1.506;2023-04-08T08:59:25;15.50;83.20
34644;DHT22;26931;43.498;-1.506;2023-04-08T09:01:51;15.80;82.50
34644;DHT22;26931;43.498;-1.506;2023-04-08T09:04:19;16.00;81.70
34644;DHT22;26931;43.498;-1.506;2023-04-08T09:07:09;16.20;80.90
34644;DHT22;26931;43.498;-1.506;2023-04-08T09:09:52;16.40;80.10
34644;DHT22;26931;43.498;-1.506;2023-04-08T09:12:18;16.60;79.40
34644;DHT22;26931;43.498;-1.506;2023-04-08T09:14:45;16.80;79.10
34644;DHT22;26931;43.498;-1.506;2023-04-08T09:17:14;16.90;78.70
34644;DHT22;26931;43.498;-1.506;2023-04-08T09:20:09;17.10;78.60
34644;DHT22;26931;43.498;-1.506;2023-04-08T09:22:59;17.40;78.40
34644;DHT22;26931;43.498;-1.506;2023-04-08T09:25:30;17.40;77.80
34644;DHT22;26931;43.498;-1.506;2023-04-08T09:27:57;17.60;77.20
34644;DHT22;26931;43.498;-1.506;2023-04-08T09:30:25;17.90;76.80
34644;DHT22;26931;43.498;-1.506;2023-04-08T09:32:56;17.90;76.10
34644;DHT22;26931;43.498;-1.506;2023-04-08T09:35:25;18.00;75.50
34644;DHT22;26931;43.498;-1.506;2023-04-08T09:37:54;18.10;75.00
34644;DHT22;26931;43.498;-1.506;2023-04-08T09:40:20;18.20;75.10
34644;DHT22;26931;43.498;-1.506;2023-04-08T09:42:48;18.40;74.80
34644;DHT22;26931;43.498;-1.506;2023-04-08T09:45:18;18.60;73.90
34644;DHT22;26931;43.498;-1.506;2023-04-08T09:50:16;18.90;73.20
34644;DHT22;26931;43.498;-1.506;2023-04-08T09:52:46;18.90;72.90
34644;DHT22;26931;43.498;-1.506;2023-04-08T09:55:16;19.00;72.20
34644;DHT22;26931;43.498;-1.506;2023-04-08T09:57:54;19.40;71.90
34644;DHT22;26931;43.498;-1.506;2023-04-08T10:00:37;19.30;71.30
34644;DHT22;26931;43.498;-1.506;2023-04-08T10:03:15;19.40;70.70
34644;DHT22;26931;43.498;-1.506;2023-04-08T10:05:46;19.50;70.80
34644;DHT22;26931;43.498;-1.506;2023-04-08T10:08:14;19.60;70.20
34644;DHT22;26931;43.498;-1.506;2023-04-08T10:10:40;19.80;69.40
34644;DHT22;26931;43.498;-1.506;2023-04-08T10:13:07;19.80;68.60
34644;DHT22;26931;43.498;-1.506;2023-04-08T10:15:34;20.10;68.10
34644;DHT22;26931;43.498;-1.506;2023-04-08T10:23:08;20.30;67.50
34644;DHT22;26931;43.498;-1.506;2023-04-08T10:25:45;20.40;66.90
34644;DHT22;26931;43.498;-1.506;2023-04-08T10:30:42;20.60;65.80
34644;DHT22;26931;43.498;-1.506;2023-04-08T10:33:22;20.70;65.70
34644;DHT22;26931;43.498;-1.506;2023-04-08T10:35:55;20.60;65.30
34644;DHT22;26931;43.498;-1.506;2023-04-08T10:38:24;20.80;65.00
34644;DHT22;26931;43.498;-1.506;2023-04-08T10:40:50;20.90;63.70
34644;DHT22;26931;43.498;-1.506;2023-04-08T10:43:17;21.00;62.70
34644;DHT22;26931;43.498;-1.506;2023-04-08T10:45:43;20.90;62.00
34644;DHT22;26931;43.498;-1.506;2023-04-08T10:50:41;21.30;60.30
34644;DHT22;26931;43.498;-1.506;2023-04-08T10:53:07;21.20;59.50
34644;DHT22;26931;43.498;-1.506;2023-04-08T10:55:33;21.30;59.10
34644;DHT22;26931;43.498;-1.506;2023-04-08T10:58:07;21.30;58.90
34644;DHT22;26931;43.498;-1.506;2023-04-08T11:00:35;21.30;58.60
34644;DHT22;26931;43.498;-1.506;2023-04-08T11:03:06;21.30;58.00
34644;DHT22;26931;43.498;-1.506;2023-04-08T11:05:33;21.30;57.20
34644;DHT22;26931;43.498;-1.506;2023-04-08T11:08:00;21.30;56.70
34644;DHT22;26931;43.498;-1.506;2023-04-08T11:10:27;21.40;55.90
34644;DHT22;26931;43.498;-1.506;2023-04-08T11:12:56;21.30;55.20
34644;DHT22;26931;43.498;-1.506;2023-04-08T11:15:28;21.30;54.10
34644;DHT22;26931;43.498;-1.506;2023-04-08T11:17:55;21.30;53.40
34644;DHT22;26931;43.498;-1.506;2023-04-08T11:20:21;21.20;52.70
34644;DHT22;26931;43.498;-1.506;2023-04-08T11:22:47;21.30;52.20
34644;DHT22;26931;43.498;-1.506;2023-04-08T11:25:15;21.30;51.80
34644;DHT22;26931;43.498;-1.506;2023-04-08T11:27:41;21.20;51.20
34644;DHT22;26931;43.498;-1.506;2023-04-08T11:30:08;21.30;50.80
34644;DHT22;26931;43.498;-1.506;2023-04-08T11:32:35;21.20;50.40
34644;DHT22;26931;43.498;-1.506;2023-04-08T11:35:04;21.20;50.00
34644;DHT22;26931;43.498;-1.506;2023-04-08T11:37:40;21.20;49.40
34644;DHT22;26931;43.498;-1.506;2023-04-08T11:40:10;21.30;49.00
34644;DHT22;26931;43.498;-1.506;2023-04-08T11:42:38;21.20;48.90
34644;DHT22;26931;43.498;-1.506;2023-04-08T11:45:12;21.20;48.70
34644;DHT22;26931;43.498;-1.506;2023-04-08T11:47:38;21.20;48.30
34644;DHT22;26931;43.498;-1.506;2023-04-08T11:50:05;21.20;47.90
34644;DHT22;26931;43.498;-1.506;2023-04-08T11:52:46;21.10;47.60
34644;DHT22;26931;43.498;-1.506;2023-04-08T11:55:27;21.10;48.10
34644;DHT22;26931;43.498;-1.506;2023-04-08T11:57:54;21.10;47.90
34644;DHT22;26931;43.498;-1.506;2023-04-08T12:00:21;21.00;47.70
34644;DHT22;26931;43.498;-1.506;2023-04-08T12:02:47;21.00;47.30
34644;DHT22;26931;43.498;-1.506;2023-04-08T12:05:14;20.90;47.00
34644;DHT22;26931;43.498;-1.506;2023-04-08T12:07:40;20.90;46.90
34644;DHT22;26931;43.498;-1.506;2023-04-08T12:10:07;20.90;47.00
34644;DHT22;26931;43.498;-1.506;2023-04-08T12:12:34;20.90;47.30
34644;DHT22;26931;43.498;-1.506;2023-04-08T12:15:00;20.90;47.30
34644;DHT22;26931;43.498;-1.506;2023-04-08T12:17:26;20.90;47.20
34644;DHT22;26931;43.498;-1.506;2023-04-08T12:19:52;20.90;46.20
34644;DHT22;26931;43.498;-1.506;2023-04-08T12:22:18;20.80;45.40
34644;DHT22;26931;43.498;-1.506;2023-04-08T12:24:44;20.90;45.80
34644;DHT22;26931;43.498;-1.506;2023-04-08T12:27:10;20.80;45.90
34644;DHT22;26931;43.498;-1.506;2023-04-08T12:29:36;20.80;46.20
34644;DHT22;26931;43.498;-1.506;2023-04-08T12:32:02;20.80;46.60
34644;DHT22;26931;43.498;-1.506;2023-04-08T12:34:30;20.80;46.70
34644;DHT22;26931;43.498;-1.506;2023-04-08T12:36:56;20.80;47.20
34644;DHT22;26931;43.498;-1.506;2023-04-08T12:39:23;20.80;47.30
34644;DHT22;26931;43.498;-1.506;2023-04-08T12:41:49;20.70;47.30
34644;DHT22;26931;43.498;-1.506;2023-04-08T12:44:15;20.80;47.20
34644;DHT22;26931;43.498;-1.506;2023-04-08T12:46:41;20.90;46.70
34644;DHT22;26931;43.498;-1.506;2023-04-08T12:49:07;20.70;45.70
34644;DHT22;26931;43.498;-1.506;2023-04-08T12:51:34;20.80;45.50
34644;DHT22;26931;43.498;-1.506;2023-04-08T12:54:01;20.80;45.50
34644;DHT22;26931;43.498;-1.506;2023-04-08T12:56:29;20.90;45.60
34644;DHT22;26931;43.498;-1.506;2023-04-08T12:58:55;20.80;45.50
34644;DHT22;26931;43.498;-1.506;2023-04-08T13:01:22;20.80;45.40
34644;DHT22;26931;43.498;-1.506;2023-04-08T13:03:48;20.80;44.90
34644;DHT22;26931;43.498;-1.506;2023-04-08T13:06:14;20.70;44.10
34644;DHT22;26931;43.498;-1.506;2023-04-08T13:08:41;20.70;44.00
34644;DHT22;26931;43.498;-1.506;2023-04-08T13:11:07;20.80;44.30
34644;DHT22;26931;43.498;-1.506;2023-04-08T13:13:34;20.90;44.50
34644;DHT22;26931;43.498;-1.506;2023-04-08T13:16:01;20.90;44.70
34644;DHT22;26931;43.498;-1.506;2023-04-08T13:18:27;20.90;44.30
34644;DHT22;26931;43.498;-1.506;2023-04-08T13:20:53;20.90;44.20
34644;DHT22;26931;43.498;-1.506;2023-04-08T13:23:20;20.90;44.10
34644;DHT22;26931;43.498;-1.506;2023-04-08T13:25:46;20.90;44.20
34644;DHT22;26931;43.498;-1.506;2023-04-08T13:28:13;20.90;44.40
34644;DHT22;26931;43.498;-1.506;2023-04-08T13:30:39;21.00;44.40
34644;DHT22;26931;43.498;-1.506;2023-04-08T13:33:05;21.00;44.10
34644;DHT22;26931;43.498;-1.506;2023-04-08T13:35:31;21.00;44.10
34644;DHT22;26931;43.498;-1.506;2023-04-08T13:37:57;21.00;44.40
34644;DHT22;26931;43.498;-1.506;2023-04-08T13:40:24;21.00;44.00
34644;DHT22;26931;43.498;-1.506;2023-04-08T13:42:49;21.00;43.80
34644;DHT22;26931;43.498;-1.506;2023-04-08T13:45:16;21.10;44.10
34644;DHT22;26931;43.498;-1.506;2023-04-08T13:47:41;21.10;44.50
34644;DHT22;26931;43.498;-1.506;2023-04-08T13:50:08;21.10;44.40
34644;DHT22;26931;43.498;-1.506;2023-04-08T13:52:34;21.10;44.00
34644;DHT22;26931;43.498;-1.506;2023-04-08T13:55:00;21.10;44.10
34644;DHT22;26931;43.498;-1.506;2023-04-08T13:57:26;21.20;44.30
34644;DHT22;26931;43.498;-1.506;2023-04-08T13:59:52;21.30;44.80
34644;DHT22;26931;43.498;-1.506;2023-04-08T14:02:19;21.20;46.20
34644;DHT22;26931;43.498;-1.506;2023-04-08T14:04:46;21.10;47.70
34644;DHT22;26931;43.498;-1.506;2023-04-08T14:07:12;21.10;49.40
34644;DHT22;26931;43.498;-1.506;2023-04-08T14:09:39;21.00;50.70
34644;DHT22;26931;43.498;-1.506;2023-04-08T14:12:05;21.00;51.50
34644;DHT22;26931;43.498;-1.506;2023-04-08T14:14:31;20.90;52.20
34644;DHT22;26931;43.498;-1.506;2023-04-08T14:16:57;20.90;52.70
34644;DHT22;26931;43.498;-1.506;2023-04-08T14:19:23;21.00;53.10
34644;DHT22;26931;43.498;-1.506;2023-04-08T14:21:50;20.80;53.50
34644;DHT22;26931;43.498;-1.506;2023-04-08T14:24:16;20.90;54.20
34644;DHT22;26931;43.498;-1.506;2023-04-08T14:26:42;21.10;54.80
34644;DHT22;26931;43.498;-1.506;2023-04-08T14:29:08;20.80;54.90
34644;DHT22;26931;43.498;-1.506;2023-04-08T14:31:34;20.90;55.20
34644;DHT22;26931;43.498;-1.506;2023-04-08T14:34:01;20.80;55.40
34644;DHT22;26931;43.498;-1.506;2023-04-08T14:36:28;20.70;55.70
34644;DHT22;26931;43.498;-1.506;2023-04-08T14:38:55;20.70;56.00
34644;DHT22;26931;43.498;-1.506;2023-04-08T14:41:21;20.60;56.00
34644;DHT22;26931;43.498;-1.506;2023-04-08T14:43:47;20.80;56.20
34644;DHT22;26931;43.498;-1.506;2023-04-08T14:46:13;20.60;56.20
34644;DHT22;26931;43.498;-1.506;2023-04-08T14:48:41;20.50;56.30
34644;DHT22;26931;43.498;-1.506;2023-04-08T14:51:07;20.50;56.40
34644;DHT22;26931;43.498;-1.506;2023-04-08T14:53:33;20.50;56.40
34644;DHT22;26931;43.498;-1.506;2023-04-08T14:55:59;20.50;56.50
34644;DHT22;26931;43.498;-1.506;2023-04-08T14:58:25;20.50;56.60
34644;DHT22;26931;43.498;-1.506;2023-04-08T15:00:52;20.50;56.70
34644;DHT22;26931;43.498;-1.506;2023-04-08T15:03:18;20.50;56.60
34644;DHT22;26931;43.498;-1.506;2023-04-08T15:05:44;20.40;56.60
34644;DHT22;26931;43.498;-1.506;2023-04-08T15:08:10;20.40;56.40
34644;DHT22;26931;43.498;-1.506;2023-04-08T15:10:36;20.30;56.30
34644;DHT22;26931;43.498;-1.506;2023-04-08T15:13:02;20.20;56.10
34644;DHT22;26931;43.498;-1.506;2023-04-08T15:15:29;20.20;55.90
34644;DHT22;26931;43.498;-1.506;2023-04-08T15:17:55;20.00;55.70
34644;DHT22;26931;43.498;-1.506;2023-04-08T15:20:21;20.10;55.90
34644;DHT22;26931;43.498;-1.506;2023-04-08T15:22:47;20.00;55.80
34644;DHT22;26931;43.498;-1.506;2023-04-08T15:25:13;20.00;55.60
34644;DHT22;26931;43.498;-1.506;2023-04-08T15:27:39;19.90;55.30
34644;DHT22;26931;43.498;-1.506;2023-04-08T15:30:06;19.90;55.10
34644;DHT22;26931;43.498;-1.506;2023-04-08T15:32:32;19.80;55.10
34644;DHT22;26931;43.498;-1.506;2023-04-08T15:34:59;19.90;55.30
34644;DHT22;26931;43.498;-1.506;2023-04-08T15:37:25;19.80;55.20
34644;DHT22;26931;43.498;-1.506;2023-04-08T15:39:52;19.90;55.10
34644;DHT22;26931;43.498;-1.506;2023-04-08T15:42:19;19.80;54.80
34644;DHT22;26931;43.498;-1.506;2023-04-08T15:44:46;19.80;54.70
34644;DHT22;26931;43.498;-1.506;2023-04-08T15:47:12;19.80;54.40
34644;DHT22;26931;43.498;-1.506;2023-04-08T15:49:38;19.70;53.90